Flight Track Log - Related Links

Times and Time Zones

All times are in EDT time to prevent confusion due to time zone crossing. See the SCX106 flight status page for this flight to view local times or setup timezone preferences in your user account.

Time Position Orientation Groundspeed Altitude Reporting Facility
EDT Latitude Longitude Course Direction KTS MPH feet Rate Location/Type
Thu 09:08:27 PM 36.0760 -115.1530 270° West 173 199 2,400  Level FlightAware ADS-B
Thu 09:08:52 PM 36.0760 -115.1770 270° West 173 199 3,500 2,509 Climbing FlightAware ADS-B
Thu 09:09:22 PM 36.0770 -115.2080 272° West 181 208 4,700 2,182 Climbing FlightAware ADS-B
Thu 09:09:47 PM 36.0770 -115.2350 270° West 204 235 5,500 1,855 Climbing FlightAware ADS-B
Thu 09:10:17 PM 36.0830 -115.2730 281° West 237 273 6,400 1,867 Climbing FlightAware ADS-B
Thu 09:10:32 PM 36.0940 -115.2850 319° Northwest 241 277 6,900 2,400 Climbing FlightAware ADS-B
Thu 09:10:47 PM 36.1120 -115.2920 343° North 246 283 7,600 2,743 Climbing FlightAware ADS-B
Thu 09:11:07 PM 36.1320 -115.2960 351° North 248 285 8,500 3,000 Climbing FlightAware ADS-B
Thu 09:11:27 PM 36.1550 -115.2850 21° North 248 285 9,600 3,257 Climbing FlightAware ADS-B
Thu 09:11:42 PM 36.1650 -115.2690 52° Northeast 245 282 10,400 2,073 Climbing FlightAware ADS-B
Thu 09:12:22 PM 36.1860 -115.2170 63° Northeast 284 327 11,500 1,350 Climbing FlightAware ADS-B
Thu 09:13:02 PM 36.1970 -115.1440 79° East 339 390 12,200 1,694 Climbing FlightAware ADS-B
Thu 09:13:47 PM 36.1970 -115.0520 90° East 365 420 13,900 2,541 Climbing FlightAware ADS-B
Thu 09:14:27 PM 36.1980 -114.9680 89° East 371 427 15,800 2,894 Climbing FlightAware ADS-B
Thu 09:15:12 PM 36.1990 -114.8730 89° East 371 427 18,000 2,894 Climbing FlightAware ADS-B
Thu 09:15:52 PM 36.2000 -114.7900 89° East 370 426 19,900 2,541 Climbing FlightAware ADS-B
Thu 09:16:37 PM 36.2000 -114.6900 90° East 380 437 21,600 2,047 Climbing FlightAware ADS-B
Thu 09:17:17 PM 36.1980 -114.6030 92° East 390 449 22,800 1,725 Climbing FlightAware ADS-B
Thu 09:17:57 PM 36.1970 -114.5130 91° East 400 460 23,900 1,694 Climbing FlightAware ADS-B
Thu 09:18:42 PM 36.1960 -114.4130 91° East 406 467 25,200 1,765 Climbing FlightAware ADS-B
Thu 09:19:22 PM 36.1950 -114.3170 91° East 411 473 26,400 1,629 Climbing FlightAware ADS-B
Thu 09:19:52 PM 36.2010 -114.2490 84° East 409 471 27,100 1,457 Climbing FlightAware ADS-B
Thu 09:20:32 PM 36.2290 -114.1620 68° East 414 476 28,100 1,425 Climbing FlightAware ADS-B
Thu 09:21:12 PM 36.2600 -114.0730 67° East 418 481 29,000 1,341 Climbing FlightAware ADS-B
Thu 09:21:57 PM 36.3120 -113.9830 54° Northeast 422 486 30,000 1,553 Climbing FlightAware ADS-B
Thu 09:22:37 PM 36.3560 -113.9060 55° Northeast 416 479 31,200 1,694 Climbing FlightAware ADS-B
Thu 09:23:22 PM 36.4050 -113.8210 54° Northeast 410 472 32,400 1,412 Climbing FlightAware ADS-B
Thu 09:24:02 PM 36.4480 -113.7440 55° Northeast 411 473 33,200 1,125 Climbing FlightAware ADS-B
Thu 09:24:42 PM 36.4930 -113.6660 54° Northeast 413 475 33,900 1,129 Climbing FlightAware ADS-B
Thu 09:25:27 PM 36.5440 -113.5770 54° Northeast 413 475 34,800 988 Climbing FlightAware ADS-B
Thu 09:26:07 PM 36.5870 -113.5000 55° Northeast 416 479 35,300 776 Climbing FlightAware ADS-B
Thu 09:26:52 PM 36.6360 -113.4130 55° Northeast 420 483 35,900 706 Climbing FlightAware ADS-B
Thu 09:27:32 PM 36.6820 -113.3330 54° Northeast 423 487 36,300 525 Climbing FlightAware ADS-B
Thu 09:28:12 PM 36.7270 -113.2530 55° Northeast 428 493 36,600 494 Climbing FlightAware ADS-B
Thu 09:28:57 PM 36.7770 -113.1630 55° Northeast 427 491 37,000 282 Climbing FlightAware ADS-B
Thu 09:29:37 PM 36.8240 -113.0800 55° Northeast 425 489 37,000  Level FlightAware ADS-B
Thu 09:30:22 PM 36.8730 -112.9910 55° Northeast 425 489 37,000  Level FlightAware ADS-B
Thu 09:31:02 PM 36.9180 -112.9110 55° Northeast 424 488 37,000  Level FlightAware ADS-B
Thu 09:31:42 PM 36.9630 -112.8300 55° Northeast 421 484 37,000  Level FlightAware ADS-B
Thu 09:32:27 PM 37.0140 -112.7390 55° Northeast 419 482 37,000  Level FlightAware ADS-B
Thu 09:33:07 PM 37.0580 -112.6590 55° Northeast 418 481 37,000  Level FlightAware ADS-B
Thu 09:33:47 PM 37.1010 -112.5810 55° Northeast 416 479 37,000  Level FlightAware ADS-B
Thu 09:34:32 PM 37.1500 -112.4930 55° Northeast 415 478 37,000  Level FlightAware ADS-B
Thu 09:35:27 PM 37.2060 -112.3920 55° Northeast 414 476 37,000  Level FlightAware ADS-B
Thu 09:36:07 PM 37.2430 -112.3250 55° Northeast 414 476 37,000  Level FlightAware ADS-B
Thu 09:36:47 PM 37.2800 -112.2580 55° Northeast 414 476 37,000  Level FlightAware ADS-B
Thu 09:37:27 PM 37.3180 -112.1910 54° Northeast 414 476 37,000  Level FlightAware ADS-B
Thu 09:38:17 PM 37.3640 -112.1070 55° Northeast 414 476 37,000  Level FlightAware ADS-B
Thu 09:38:57 PM 37.4020 -112.0400 54° Northeast 414 476 37,000  Level FlightAware ADS-B
Thu 09:39:37 PM 37.4390 -111.9730 55° Northeast 414 476 37,000  Level FlightAware ADS-B
Thu 09:40:17 PM 37.4760 -111.9060 55° Northeast 414 476 37,000  Level FlightAware ADS-B
Thu 09:40:57 PM 37.5140 -111.8380 55° Northeast 414 476 37,000  Level FlightAware ADS-B
Thu 09:41:37 PM 37.5510 -111.7710 55° Northeast 414 476 37,000  Level FlightAware ADS-B
Thu 09:42:27 PM 37.5980 -111.6870 55° Northeast 414 476 37,000  Level FlightAware ADS-B
Thu 09:43:07 PM 37.6350 -111.6200 55° Northeast 414 476 37,000  Level FlightAware ADS-B
Thu 09:43:57 PM 37.6820 -111.5350 55° Northeast 414 476 37,000  Level FlightAware ADS-B
Thu 09:44:37 PM 37.7190 -111.4680 55° Northeast 414 476 37,000  Level FlightAware ADS-B
Thu 09:48:22 PM 38.0520 -110.8120 57° Northeast 425 489 37,000  Level FlightAware ADS-B
Thu 09:48:57 PM 38.0950 -110.7300 56° Northeast 427 491 37,000  Level FlightAware ADS-B
Thu 09:53:27 PM 38.3880 -110.1630 56° Northeast 429 494 37,000  Level FlightAware ADS-B
Thu 09:54:07 PM 38.4330 -110.0750 57° Northeast 428 493 37,000  Level FlightAware ADS-B
Thu 09:54:52 PM 38.4820 -109.9780 57° Northeast 429 494 37,000  Level FlightAware ADS-B
Thu 09:55:37 PM 38.5290 -109.8850 57° Northeast 428 493 37,000  Level FlightAware ADS-B
Thu 09:56:52 PM 38.6020 -109.7430 57° Northeast 427 491 37,000  Level FlightAware ADS-B
Thu 09:57:42 PM 38.6620 -109.6240 57° Northeast 426 490 37,000  Level FlightAware ADS-B
Thu 09:58:22 PM 38.7070 -109.5540 51° Northeast 426 490 37,000  Level FlightAware ADS-B
Thu 09:59:02 PM 38.7620 -109.4690 50° Northeast 431 496 37,000  Level FlightAware ADS-B
Thu 09:59:47 PM 38.8200 -109.3790 50° Northeast 432 497 37,000  Level FlightAware ADS-B
Thu 10:00:27 PM 38.8720 -109.3060 48° Northeast 431 496 37,000  Level FlightAware ADS-B
Thu 10:01:12 PM 38.9360 -109.2190 47° Northeast 430 495 37,000  Level FlightAware ADS-B
Thu 10:01:52 PM 38.9930 -109.1510 43° Northeast 428 493 37,000  Level FlightAware ADS-B
Thu 10:02:37 PM 39.0560 -109.0740 43° Northeast 428 493 37,000  Level FlightAware ADS-B
Thu 10:03:17 PM 39.1200 -108.9980 43° Northeast 427 491 37,000  Level FlightAware ADS-B
Thu 10:03:57 PM 39.1720 -108.9340 44° Northeast 426 490 37,000  Level FlightAware ADS-B
Thu 10:04:42 PM 39.2300 -108.8600 45° Northeast 424 488 37,000  Level FlightAware ADS-B
Thu 10:05:22 PM 39.2810 -108.7700 54° Northeast 422 486 37,000  Level FlightAware ADS-B
Thu 10:06:02 PM 39.3200 -108.6850 59° Northeast 420 483 37,000  Level FlightAware ADS-B
Thu 10:06:47 PM 39.3630 -108.5930 59° Northeast 420 483 37,000  Level FlightAware ADS-B
Thu 10:07:27 PM 39.4080 -108.4990 58° Northeast 419 482 37,000  Level FlightAware ADS-B
Thu 10:08:07 PM 39.4480 -108.4130 59° Northeast 423 487 37,000  Level FlightAware ADS-B
Thu 10:08:47 PM 39.4880 -108.3280 59° Northeast 428 493 37,000  Level FlightAware ADS-B
Thu 10:09:37 PM 39.5400 -108.2170 59° Northeast 427 491 37,000  Level FlightAware ADS-B
Thu 10:10:17 PM 39.5790 -108.1330 59° Northeast 431 496 37,000  Level FlightAware ADS-B
Thu 10:10:57 PM 39.6170 -108.0520 59° Northeast 432 497 37,000  Level FlightAware ADS-B
Thu 10:11:42 PM 39.6650 -107.9480 59° Northeast 431 496 37,000  Level FlightAware ADS-B
Thu 10:12:22 PM 39.7080 -107.8540 59° Northeast 433 498 37,000  Level FlightAware ADS-B
Thu 10:13:07 PM 39.7560 -107.7490 59° Northeast 432 497 37,000  Level FlightAware ADS-B
Thu 10:13:47 PM 39.7970 -107.6600 59° Northeast 438 504 37,000  Level FlightAware ADS-B
Thu 10:14:27 PM 39.8390 -107.5690 59° Northeast 437 503 37,000  Level FlightAware ADS-B
Thu 10:14:35 PM 39.8487 -107.5470 60° Northeast 438 504 37,000  Level FlightAware ADS-B
Thu 10:15:05 PM 39.8797 -107.4790 59° Northeast 437 503 37,000  Level FlightAware ADS-B
Thu 10:15:50 PM 39.9260 -107.3770 59° Northeast 437 503 37,000  Level FlightAware ADS-B
Thu 10:16:23 PM 39.9597 -107.3030 59° Northeast 436 502 37,000  Level FlightAware ADS-B
Thu 10:17:17 PM 40.0130 -107.1850 59° Northeast 434 499 37,000  Level FlightAware ADS-B
Thu 10:17:28 PM 40.0261 -107.1560 59° Northeast 435 501 37,000  Level FlightAware ADS-B
Thu 10:18:07 PM 40.0656 -107.0680 60° Northeast 434 499 37,000  Level FlightAware ADS-B
Thu 10:18:42 PM 40.1000 -106.9920 59° Northeast 433 498 37,000  Level FlightAware ADS-B
Thu 10:19:02 PM 40.1216 -106.9440 60° Northeast 433 498 37,000  Level FlightAware ADS-B
Thu 10:19:39 PM 40.1586 -106.8610 60° Northeast 435 501 37,000  Level FlightAware ADS-B
Thu 10:20:19 PM 40.1996 -106.7690 60° Northeast 434 499 37,000  Level FlightAware ADS-B
Thu 10:21:01 PM 40.2420 -106.6740 60° Northeast 436 502 37,000  Level FlightAware ADS-B
Thu 10:21:39 PM 40.2796 -106.5890 60° Northeast 437 503 37,000  Level FlightAware ADS-B
Thu 10:22:09 PM 40.3101 -106.5190 60° Northeast 439 505 37,000  Level FlightAware ADS-B
Thu 10:23:07 PM 40.3670 -106.3900 60° Northeast 440 506 37,000  Level FlightAware ADS-B
Thu 10:23:13 PM 40.3751 -106.3720 59° Northeast 441 507 37,000  Level FlightAware ADS-B
Thu 10:23:51 PM 40.4139 -106.2830 60° Northeast 441 507 37,000  Level FlightAware ADS-B
Thu 10:24:32 PM 40.4540 -106.1910 60° Northeast 441 507 37,000  Level FlightAware ADS-B
Thu 10:25:07 PM 40.4880 -106.1150 60° Northeast 441 507 37,000  Level FlightAware ADS-B
Thu 10:25:32 PM 40.5156 -106.0510 60° Northeast 441 507 37,000  Level FlightAware ADS-B
Thu 10:26:09 PM 40.5537 -105.9630 60° Northeast 442 509 37,000  Level FlightAware ADS-B
Thu 10:27:17 PM 40.6200 -105.8090 60° Northeast 444 511 37,000  Level FlightAware ADS-B
Thu 10:28:02 PM 40.6670 -105.7010 60° Northeast 444 511 37,000  Level FlightAware ADS-B
Thu 10:28:36 PM 40.7022 -105.6180 61° Northeast 444 511 37,000  Level FlightAware ADS-B
Thu 10:29:10 PM 40.7364 -105.5380 61° Northeast 444 511 37,000  Level FlightAware ADS-B
Thu 10:29:43 PM 40.7691 -105.4610 61° Northeast 445 512 37,000  Level FlightAware ADS-B
Thu 10:30:23 PM 40.8091 -105.3670 61° Northeast 445 512 37,000  Level FlightAware ADS-B
Thu 10:31:09 PM 40.8559 -105.2570 61° Northeast 446 513 37,000  Level FlightAware ADS-B
Thu 10:31:39 PM 40.8863 -105.1860 60° Northeast 448 516 37,000  Level FlightAware ADS-B
Thu 10:32:12 PM 40.9192 -105.1080 61° Northeast 449 517 37,000  Level FlightAware ADS-B
Thu 10:32:43 PM 40.9502 -105.0340 61° Northeast 450 518 37,000  Level FlightAware ADS-B
Thu 10:33:16 PM 40.9840 -104.9530 61° Northeast 452 520 37,000  Level FlightAware ADS-B
Thu 10:33:48 PM 41.0160 -104.8770 61° Northeast 453 521 37,000  Level FlightAware ADS-B
Thu 10:34:18 PM 41.0466 -104.8040 61° Northeast 455 524 37,000  Level FlightAware ADS-B
Thu 10:34:50 PM 41.0788 -104.7270 61° Northeast 454 522 37,000  Level FlightAware ADS-B
Thu 10:35:21 PM 41.1109 -104.6490 61° Northeast 455 524 37,000  Level FlightAware ADS-B
Thu 10:35:53 PM 41.1433 -104.5710 61° Northeast 456 525 37,000  Level FlightAware ADS-B
Thu 10:36:24 PM 41.1739 -104.4970 61° Northeast 456 525 37,000  Level FlightAware ADS-B
Thu 10:36:54 PM 41.2049 -104.4220 61° Northeast 456 525 37,000  Level FlightAware ADS-B
Thu 10:37:25 PM 41.2353 -104.3480 61° Northeast 456 525 37,000  Level FlightAware ADS-B
Thu 10:37:55 PM 41.2660 -104.2730 61° Northeast 456 525 37,000  Level FlightAware ADS-B
Thu 10:38:26 PM 41.2968 -104.1980 61° Northeast 456 525 37,000  Level FlightAware ADS-B
Thu 10:38:56 PM 41.3268 -104.1240 62° Northeast 456 525 37,000  Level FlightAware ADS-B
Thu 10:39:26 PM 41.3569 -104.0500 62° Northeast 455 524 37,000  Level FlightAware ADS-B
Thu 10:39:56 PM 41.3876 -103.9750 61° Northeast 454 522 37,000  Level FlightAware ADS-B
Thu 10:40:26 PM 41.4177 -103.9010 62° Northeast 453 521 37,000  Level FlightAware ADS-B
Thu 10:40:57 PM 41.4477 -103.8270 62° Northeast 452 520 37,000  Level FlightAware ADS-B
Thu 10:41:27 PM 41.4776 -103.7520 62° Northeast 452 520 37,000  Level FlightAware ADS-B
Thu 10:41:58 PM 41.5081 -103.6770 61° Northeast 452 520 37,000  Level FlightAware ADS-B
Thu 10:42:29 PM 41.5381 -103.6020 62° Northeast 452 520 37,000  Level FlightAware ADS-B
Thu 10:43:09 PM 41.5778 -103.5020 62° Northeast 452 520 37,000  Level FlightAware ADS-B
Thu 10:43:39 PM 41.6074 -103.4280 62° Northeast 452 520 37,000  Level FlightAware ADS-B
Thu 10:44:10 PM 41.6371 -103.3530 62° Northeast 451 519 37,000  Level FlightAware ADS-B
Thu 10:44:40 PM 41.6668 -103.2780 62° Northeast 452 520 37,000  Level FlightAware ADS-B
Thu 10:45:10 PM 41.6963 -103.2040 62° Northeast 453 521 37,000  Level FlightAware ADS-B
Thu 10:45:40 PM 41.7258 -103.1290 62° Northeast 454 522 37,000  Level FlightAware ADS-B
Thu 10:46:11 PM 41.7563 -103.0520 62° Northeast 454 522 37,000  Level FlightAware ADS-B
Thu 10:46:44 PM 41.7884 -102.9700 62° Northeast 455 524 37,000  Level FlightAware ADS-B
Thu 10:47:16 PM 41.8190 -102.8920 62° Northeast 456 525 37,000  Level FlightAware ADS-B
Thu 10:47:50 PM 41.8522 -102.8070 62° Northeast 457 526 37,000  Level FlightAware ADS-B
Thu 10:48:21 PM 41.8826 -102.7290 62° Northeast 457 526 37,000  Level FlightAware ADS-B
Thu 10:48:57 PM 41.9130 -102.6530 62° Northeast 457 526 37,000  Level FlightAware ADS-B
Thu 10:49:12 PM 41.9329 -102.5990 64° Northeast 458 527 37,000  Level FlightAware ADS-B
Thu 10:49:43 PM 41.9624 -102.5230 62° Northeast 459 528 37,000  Level FlightAware ADS-B
Thu 10:50:20 PM 41.9989 -102.4280 63° Northeast 459 528 37,000  Level FlightAware ADS-B
Thu 10:50:50 PM 42.0285 -102.3520 62° Northeast 461 531 37,000  Level FlightAware ADS-B
Thu 10:51:22 PM 42.0595 -102.2710 63° Northeast 462 532 37,000  Level FlightAware ADS-B
Thu 10:51:54 PM 42.0909 -102.1880 63° Northeast 464 534 37,000  Level FlightAware ADS-B
Thu 10:52:26 PM 42.1215 -102.1080 63° Northeast 464 534 37,000  Level FlightAware ADS-B
Thu 10:52:56 PM 42.1508 -102.0310 63° Northeast 466 536 37,000  Level FlightAware ADS-B
Thu 10:53:27 PM 42.1792 -101.9564 63° Northeast 465 535 37,000  Level Denver Center
Thu 10:54:29 PM 42.2353 -101.8075 63° Northeast 464 534 37,000  Level Denver Center
Thu 10:55:31 PM 42.2922 -101.6572 63° Northeast 468 539 37,000  Level Denver Center
Thu 10:56:32 PM 42.3578 -101.4819 63° Northeast 468 539 37,000  Level Denver Center
Thu 10:57:34 PM 42.4131 -101.3319 63° Northeast 466 536 37,000  Level Denver Center
Thu 10:58:36 PM 42.4781 -101.1561 63° Northeast 467 537 37,000  Level Denver Center
Thu 10:59:37 PM 42.5328 -101.0064 64° Northeast 464 534 37,000  Level Denver Center
Thu 11:00:39 PM 42.5969 -100.8303 64° Northeast 465 535 37,000  Level Denver Center
Thu 11:01:40 PM 42.6514 -100.6767 64° Northeast 470 541 37,000  Level Denver Center
Thu 11:02:42 PM 42.7072 -100.5264 63° Northeast 467 537 37,000  Level Denver Center
Thu 11:03:43 PM 42.7669 -100.3597 64° Northeast 468 539 37,000  Level Denver Center
Thu 11:04:45 PM 42.8225 -100.1997 65° Northeast 467 537 37,000  Level Denver Center
Thu 11:05:46 PM 42.8800 -100.0392 64° Northeast 469 540 37,000  Level Denver Center
Thu 11:06:02 PM 42.9025 -99.9764 64° Northeast 471 542 37,000  Level Minneapolis Center
Thu 11:07:03 PM 42.9589 -99.8142 65° Northeast 472 543 37,000  Level Minneapolis Center
Thu 11:08:05 PM 43.0158 -99.6531 64° Northeast 472 543 37,000  Level Minneapolis Center
Thu 11:09:06 PM 43.0728 -99.4914 64° Northeast 473 544 37,000  Level Minneapolis Center
Thu 11:10:08 PM 43.1283 -99.3297 65° Northeast 473 544 37,000  Level Minneapolis Center
Thu 11:11:09 PM 43.1728 -99.1981 65° Northeast 477 549 37,000  Level Minneapolis Center
Thu 11:12:11 PM 43.2408 -98.9972 65° Northeast 482 555 37,000  Level Minneapolis Center
Thu 11:13:12 PM 43.2956 -98.8369 65° Northeast 471 542 37,000  Level Minneapolis Center
Thu 11:19:22 PM 43.6410 -97.8000 65° Northeast 474 545 37,000  Level FlightAware ADS-B
Thu 11:20:02 PM 43.6780 -97.6860 66° East 475 547 37,000  Level FlightAware ADS-B
Thu 11:20:47 PM 43.7150 -97.5700 66° East 475 547 37,000  Level FlightAware ADS-B
Thu 11:21:22 PM 43.7480 -97.4700 65° Northeast 476 548 37,000  Level FlightAware ADS-B
Thu 11:22:07 PM 43.7890 -97.3390 67° East 477 549 37,000  Level FlightAware ADS-B
Thu 11:22:52 PM 43.8300 -97.2120 66° East 478 550 37,000  Level FlightAware ADS-B
Thu 11:23:32 PM 43.8640 -97.1040 66° East 479 551 37,000  Level FlightAware ADS-B
Thu 11:24:17 PM 43.9050 -96.9750 66° East 478 550 37,000  Level FlightAware ADS-B
Thu 11:24:52 PM 43.9360 -96.8760 66° East 479 551 37,000  Level FlightAware ADS-B
Thu 11:25:32 PM 43.9720 -96.7630 66° East 479 551 37,000  Level FlightAware ADS-B
Thu 11:26:22 PM 44.0150 -96.6230 67° East 479 551 37,000  Level FlightAware ADS-B
Thu 11:26:57 PM 44.0430 -96.5330 67° East 479 551 37,000  Level FlightAware ADS-B
Thu 11:27:42 PM 44.0840 -96.4010 67° East 478 550 37,000  Level FlightAware ADS-B
Thu 11:28:27 PM 44.1250 -96.2690 67° East 477 549 37,000  Level FlightAware ADS-B
Thu 11:29:07 PM 44.1580 -96.1590 67° East 478 550 37,000 -212 Level FlightAware ADS-B
Thu 11:29:52 PM 44.1980 -96.0300 67° East 474 545 36,700 -1,341 Descending FlightAware ADS-B
Thu 11:30:32 PM 44.2320 -95.9170 67° East 471 542 35,100 -2,329 Descending FlightAware ADS-B
Thu 11:31:17 PM 44.2690 -95.7950 67° East 466 536 33,400 -2,188 Descending FlightAware ADS-B
Thu 11:31:57 PM 44.3010 -95.6870 67° East 458 527 32,000 -2,175 Descending FlightAware ADS-B
Thu 11:32:37 PM 44.3340 -95.5770 67° East 451 519 30,500 -2,188 Descending FlightAware ADS-B
Thu 11:33:22 PM 44.3700 -95.4580 67° East 441 507 28,900 -2,188 Descending FlightAware ADS-B
Thu 11:34:02 PM 44.4020 -95.3510 67° East 432 497 27,400 -2,118 Descending FlightAware ADS-B
Thu 11:34:47 PM 44.4350 -95.2380 68° East 421 484 25,900 -1,482 Descending FlightAware ADS-B
Thu 11:35:27 PM 44.4630 -95.1410 68° East 391 450 25,300 -1,125 Descending FlightAware ADS-B
Thu 11:36:07 PM 44.4860 -95.0470 71° East 377 434 24,400 -1,500 Descending FlightAware ADS-B
Thu 11:36:47 PM 44.5080 -94.9550 71° East 367 422 23,300 -1,694 Descending FlightAware ADS-B
Thu 11:37:32 PM 44.5320 -94.8540 72° East 358 412 22,000 -1,694 Descending FlightAware ADS-B
Thu 11:38:12 PM 44.5520 -94.7690 72° East 353 406 20,900 -1,765 Descending FlightAware ADS-B
Thu 11:38:57 PM 44.5740 -94.6720 72° East 342 394 19,500 -2,400 Descending FlightAware ADS-B
Thu 11:39:37 PM 44.5940 -94.5860 72° East 358 412 17,500 -2,541 Descending FlightAware ADS-B
Thu 11:40:22 PM 44.6170 -94.4850 72° East 352 405 15,900 -2,047 Descending FlightAware ADS-B
Thu 11:41:02 PM 44.6370 -94.3980 72° East 343 395 14,600 -2,025 Descending FlightAware ADS-B
Thu 11:41:42 PM 44.6560 -94.3150 72° East 337 388 13,200 -1,976 Descending FlightAware ADS-B
Thu 11:42:27 PM 44.6770 -94.2240 72° East 329 379 11,800 -1,694 Descending FlightAware ADS-B
Thu 11:43:07 PM 44.6960 -94.1430 72° East 318 366 10,800 -706 Descending FlightAware ADS-B
Thu 11:43:52 PM 44.7160 -94.0540 72° East 318 366 10,800  Level FlightAware ADS-B
Thu 11:44:32 PM 44.7340 -93.9730 73° East 318 366 10,800  Level FlightAware ADS-B
Thu 11:45:17 PM 44.7530 -93.8880 73° East 319 367 10,800  Level FlightAware ADS-B
Thu 11:45:57 PM 44.7710 -93.8080 72° East 319 367 10,800  Level FlightAware ADS-B
Thu 11:46:37 PM 44.7880 -93.7290 73° East 319 367 10,800 -282 Level FlightAware ADS-B
Thu 11:47:22 PM 44.8080 -93.6400 72° East 302 348 10,400 -771 Descending FlightAware ADS-B
Thu 11:47:47 PM 44.8180 -93.5960 72° East 290 334 9,900 -764 Descending FlightAware ADS-B
Thu 11:48:17 PM 44.8290 -93.5440 73° East 263 303 9,700 -655 Descending FlightAware ADS-B
Thu 11:48:42 PM 44.8380 -93.5020 73° East 255 293 9,300 -1,200 Descending FlightAware ADS-B
Thu 11:49:12 PM 44.8480 -93.4570 73° East 251 289 8,600 -1,300 Descending FlightAware ADS-B
Thu 11:49:42 PM 44.8570 -93.4110 75° East 252 290 8,000 -873 Descending FlightAware ADS-B
Thu 11:50:07 PM 44.8440 -93.3720 115° Southeast 259 298 7,800 -436 Descending FlightAware ADS-B
Thu 11:50:37 PM 44.8220 -93.3310 127° Southeast 264 304 7,600 -764 Descending FlightAware ADS-B
Thu 11:51:02 PM 44.8030 -93.2970 128° Southeast 262 302 7,100 -1,309 Descending FlightAware ADS-B
Thu 11:51:32 PM 44.7820 -93.2560 126° Southeast 258 297 6,400 -1,300 Descending FlightAware ADS-B
Thu 11:52:02 PM 44.7600 -93.2160 128° Southeast 251 289 5,800 -1,200 Descending FlightAware ADS-B
Thu 11:52:27 PM 44.7440 -93.1850 126° Southeast 251 289 5,300 -1,350 Descending FlightAware ADS-B
Thu 11:52:42 PM 44.7320 -93.1630 128° Southeast 250 288 4,900 -800 Descending FlightAware ADS-B
Thu 11:53:12 PM 44.7140 -93.1240 123° Southeast 225 259 4,700 -300 Descending FlightAware ADS-B
Thu 11:53:22 PM 44.7130 -93.1150 99° East 216 249 4,700 -450 Level FlightAware ADS-B
Thu 11:53:52 PM 44.7300 -93.0800 56° Northeast 205 236 4,400 -533 Descending FlightAware ADS-B
Thu 11:54:07 PM 44.7420 -93.0750 16° North 202 232 4,300 -600 Descending FlightAware ADS-B
Thu 11:54:32 PM 44.7660 -93.0680 12° North 188 216 4,000 -750 Descending FlightAware ADS-B
Thu 11:54:47 PM 44.7770 -93.0640 14° North 179 206 3,800 -857 Descending FlightAware ADS-B
Thu 11:55:07 PM 44.7930 -93.0590 13° North 172 198 3,500 -900 Descending FlightAware ADS-B
Thu 11:55:27 PM 44.8080 -93.0670 339° North 177 204 3,200 -1,080 Descending FlightAware ADS-B
Thu 11:55:57 PM 44.8250 -93.0920 314° West 183 211 2,600 -1,200 Descending FlightAware ADS-B
Thu 11:56:27 PM 44.8390 -93.1210 304° West 176 203 2,000 -1,091 Descending FlightAware ADS-B
Thu 11:56:52 PM 44.8490 -93.1460 299° West 159 183 1,600 -873 Descending FlightAware ADS-B
Thu 11:57:22 PM 44.8610 -93.1720 303° West 159 183 1,200 -800 Descending FlightAware ADS-B
Thu 11:57:52 PM 44.8720 -93.1980 301° West 150 173 800 -800 Descending FlightAware ADS-B

Login

Don't have an account? Register now (free) for customized features, flight alerts, and more!